sensor_id;sensor_type;location;lat;lon;timestamp;temperature;humidity
7688;DHT22;30781;48.154;11.554;2022-10-22T00:00:16;16.00;99.90
7688;DHT22;30781;48.154;11.554;2022-10-22T00:02:45;16.00;99.90
7688;DHT22;30781;48.154;11.554;2022-10-22T00:05:11;16.00;99.90
7688;DHT22;30781;48.154;11.554;2022-10-22T00:07:38;16.00;99.90
7688;DHT22;30781;48.154;11.554;2022-10-22T00:10:07;16.00;99.90
7688;DHT22;30781;48.154;11.554;2022-10-22T00:12:34;16.00;99.90
7688;DHT22;30781;48.154;11.554;2022-10-22T00:15:02;16.00;99.90
7688;DHT22;30781;48.154;11.554;2022-10-22T00:17:31;16.00;99.90
7688;DHT22;30781;48.154;11.554;2022-10-22T00:19:59;16.00;99.90
7688;DHT22;30781;48.154;11.554;2022-10-22T00:22:26;15.90;99.90
7688;DHT22;30781;48.154;11.554;2022-10-22T00:24:53;15.90;99.90
7688;DHT22;30781;48.154;11.554;2022-10-22T00:27:20;15.90;99.90
7688;DHT22;30781;48.154;11.554;2022-10-22T00:29:47;15.90;99.90
7688;DHT22;30781;48.154;11.554;2022-10-22T00:32:14;15.90;99.90
7688;DHT22;30781;48.154;11.554;2022-10-22T00:34:41;15.90;99.90
7688;DHT22;30781;48.154;11.554;2022-10-22T00:37:12;15.80;99.90
7688;DHT22;30781;48.154;11.554;2022-10-22T00:39:40;15.80;99.90
7688;DHT22;30781;48.154;11.554;2022-10-22T00:42:11;15.80;99.90
7688;DHT22;30781;48.154;11.554;2022-10-22T00:45:19;15.80;99.90
7688;DHT22;30781;48.154;11.554;2022-10-22T00:47:53;15.80;99.90
7688;DHT22;30781;48.154;11.554;2022-10-22T00:50:26;15.80;99.90
7688;DHT22;30781;48.154;11.554;2022-10-22T00:52:56;15.70;99.90
7688;DHT22;30781;48.154;11.554;2022-10-22T00:55:25;15.70;99.90
7688;DHT22;30781;48.154;11.554;2022-10-22T00:57:54;15.70;99.90
7688;DHT22;30781;48.154;11.554;2022-10-22T01:00:23;15.60;99.90
7688;DHT22;30781;48.154;11.554;2022-10-22T01:02:50;15.60;99.90
7688;DHT22;30781;48.154;11.554;2022-10-22T01:05:20;15.50;99.90
7688;DHT22;30781;48.154;11.554;2022-10-22T01:07:48;15.50;99.90
7688;DHT22;30781;48.154;11.554;2022-10-22T01:10:25;15.40;99.90
7688;DHT22;30781;48.154;11.554;2022-10-22T01:13:05;15.40;99.90
7688;DHT22;30781;48.154;11.554;2022-10-22T01:15:47;15.40;99.90
7688;DHT22;30781;48.154;11.554;2022-10-22T01:18:20;15.30;99.90
7688;DHT22;30781;48.154;11.554;2022-10-22T01:20:58;15.30;99.90
7688;DHT22;30781;48.154;11.554;2022-10-22T01:26:34;15.30;99.90
7688;DHT22;30781;48.154;11.554;2022-10-22T01:29:11;15.30;99.90
7688;DHT22;30781;48.154;11.554;2022-10-22T01:31:46;15.30;99.90
7688;DHT22;30781;48.154;11.554;2022-10-22T01:34:16;15.30;99.90
7688;DHT22;30781;48.154;11.554;2022-10-22T01:36:47;15.20;99.90
7688;DHT22;30781;48.154;11.554;2022-10-22T01:39:21;15.20;99.90
7688;DHT22;30781;48.154;11.554;2022-10-22T01:41:49;15.20;99.90
7688;DHT22;30781;48.154;11.554;2022-10-22T01:44:27;15.20;99.90
7688;DHT22;30781;48.154;11.554;2022-10-22T01:47:02;15.20;99.90
7688;DHT22;30781;48.154;11.554;2022-10-22T01:49:39;15.20;99.90
7688;DHT22;30781;48.154;11.554;2022-10-22T01:52:17;15.20;99.90
7688;DHT22;30781;48.154;11.554;2022-10-22T01:54:53;15.20;99.90
7688;DHT22;30781;48.154;11.554;2022-10-22T01:57:32;15.20;99.90
7688;DHT22;30781;48.154;11.554;2022-10-22T02:00:05;15.20;99.90
7688;DHT22;30781;48.154;11.554;2022-10-22T02:02:40;15.10;99.90
7688;DHT22;30781;48.154;11.554;2022-10-22T02:05:13;15.10;99.90
7688;DHT22;30781;48.154;11.554;2022-10-22T02:07:45;15.10;99.90
7688;DHT22;30781;48.154;11.554;2022-10-22T02:10:14;15.10;99.90
7688;DHT22;30781;48.154;11.554;2022-10-22T02:12:43;15.10;99.90
7688;DHT22;30781;48.154;11.554;2022-10-22T02:15:16;15.10;99.90
7688;DHT22;30781;48.154;11.554;2022-10-22T02:17:45;15.10;99.90
7688;DHT22;30781;48.154;11.554;2022-10-22T02:20:17;15.10;99.90
7688;DHT22;30781;48.154;11.554;2022-10-22T02:22:49;15.10;99.90
7688;DHT22;30781;48.154;11.554;2022-10-22T02:25:19;15.00;99.90
7688;DHT22;30781;48.154;11.554;2022-10-22T02:27:50;15.10;99.90
7688;DHT22;30781;48.154;11.554;2022-10-22T02:30:20;15.00;99.90
7688;DHT22;30781;48.154;11.554;2022-10-22T02:32:50;15.10;99.90
7688;DHT22;30781;48.154;11.554;2022-10-22T02:35:22;15.10;99.90
7688;DHT22;30781;48.154;11.554;2022-10-22T02:37:53;15.00;99.90
7688;DHT22;30781;48.154;11.554;2022-10-22T02:40:21;15.00;99.90
7688;DHT22;30781;48.154;11.554;2022-10-22T02:42:49;15.00;99.90
7688;DHT22;30781;48.154;11.554;2022-10-22T02:45:19;15.00;99.90
7688;DHT22;30781;48.154;11.554;2022-10-22T02:47:47;15.00;99.90
7688;DHT22;30781;48.154;11.554;2022-10-22T02:50:14;15.00;99.90
7688;DHT22;30781;48.154;11.554;2022-10-22T02:52:43;15.00;99.90
7688;DHT22;30781;48.154;11.554;2022-10-22T02:55:10;15.00;99.90
7688;DHT22;30781;48.154;11.554;2022-10-22T02:57:37;15.00;99.90
7688;DHT22;30781;48.154;11.554;2022-10-22T03:00:05;15.00;99.90
7688;DHT22;30781;48.154;11.554;2022-10-22T03:02:33;15.00;99.90
7688;DHT22;30781;48.154;11.554;2022-10-22T03:05:01;15.00;99.90
7688;DHT22;30781;48.154;11.554;2022-10-22T03:07:28;14.90;99.90
7688;DHT22;30781;48.154;11.554;2022-10-22T03:09:55;14.90;99.90
7688;DHT22;30781;48.154;11.554;2022-10-22T03:12:22;14.90;99.90
7688;DHT22;30781;48.154;11.554;2022-10-22T03:14:49;14.90;99.90
7688;DHT22;30781;48.154;11.554;2022-10-22T03:17:19;14.90;99.90
7688;DHT22;30781;48.154;11.554;2022-10-22T03:19:47;14.90;99.90
7688;DHT22;30781;48.154;11.554;2022-10-22T03:22:17;14.90;99.90
7688;DHT22;30781;48.154;11.554;2022-10-22T03:24:47;14.90;99.90
7688;DHT22;30781;48.154;11.554;2022-10-22T03:27:19;14.90;99.90
7688;DHT22;30781;48.154;11.554;2022-10-22T03:29:48;14.90;99.90
7688;DHT22;30781;48.154;11.554;2022-10-22T03:32:16;14.90;99.90
7688;DHT22;30781;48.154;11.554;2022-10-22T03:34:43;14.90;99.90
7688;DHT22;30781;48.154;11.554;2022-10-22T03:37:11;14.90;99.90
7688;DHT22;30781;48.154;11.554;2022-10-22T03:39:39;14.90;99.90
7688;DHT22;30781;48.154;11.554;2022-10-22T03:42:06;14.90;99.90
7688;DHT22;30781;48.154;11.554;2022-10-22T03:44:37;14.80;99.90
7688;DHT22;30781;48.154;11.554;2022-10-22T03:47:05;14.80;99.90
7688;DHT22;30781;48.154;11.554;2022-10-22T03:49:36;14.80;99.90
7688;DHT22;30781;48.154;11.554;2022-10-22T03:52:06;14.70;99.90
7688;DHT22;30781;48.154;11.554;2022-10-22T03:54:35;14.70;99.90
7688;DHT22;30781;48.154;11.554;2022-10-22T03:57:08;14.70;99.90
7688;DHT22;30781;48.154;11.554;2022-10-22T03:59:38;14.60;99.90
7688;DHT22;30781;48.154;11.554;2022-10-22T04:02:05;14.50;99.90
7688;DHT22;30781;48.154;11.554;2022-10-22T04:04:34;14.50;99.90
7688;DHT22;30781;48.154;11.554;2022-10-22T04:07:01;14.50;99.90
7688;DHT22;30781;48.154;11.554;2022-10-22T04:09:30;14.40;99.90
7688;DHT22;30781;48.154;11.554;2022-10-22T04:11:59;14.40;99.90
7688;DHT22;30781;48.154;11.554;2022-10-22T04:14:26;14.30;99.90
7688;DHT22;30781;48.154;11.554;2022-10-22T04:16:54;14.30;99.90
7688;DHT22;30781;48.154;11.554;2022-10-22T04:19:21;14.30;99.90
7688;DHT22;30781;48.154;11.554;2022-10-22T04:21:48;14.30;99.90
7688;DHT22;30781;48.154;11.554;2022-10-22T04:24:15;14.30;99.90
7688;DHT22;30781;48.154;11.554;2022-10-22T04:26:45;14.20;99.90
7688;DHT22;30781;48.154;11.554;2022-10-22T04:29:13;14.20;99.90
7688;DHT22;30781;48.154;11.554;2022-10-22T04:31:40;14.20;99.90
7688;DHT22;30781;48.154;11.554;2022-10-22T04:34:07;14.20;99.90
7688;DHT22;30781;48.154;11.554;2022-10-22T04:36:34;14.20;99.90
7688;DHT22;30781;48.154;11.554;2022-10-22T04:39:01;14.20;99.90
7688;DHT22;30781;48.154;11.554;2022-10-22T04:41:30;14.20;99.90
7688;DHT22;30781;48.154;11.554;2022-10-22T04:43:58;14.10;99.90
7688;DHT22;30781;48.154;11.554;2022-10-22T04:46:30;14.10;99.90
7688;DHT22;30781;48.154;11.554;2022-10-22T04:48:58;14.10;99.90
7688;DHT22;30781;48.154;11.554;2022-10-22T04:51:27;14.10;99.90
7688;DHT22;30781;48.154;11.554;2022-10-22T04:53:54;14.10;99.90
7688;DHT22;30781;48.154;11.554;2022-10-22T04:56:23;14.10;99.90
7688;DHT22;30781;48.154;11.554;2022-10-22T04:58:56;14.10;99.90
7688;DHT22;30781;48.154;11.554;2022-10-22T05:01:27;14.10;99.90
7688;DHT22;30781;48.154;11.554;2022-10-22T05:03:56;14.10;99.90
7688;DHT22;30781;48.154;11.554;2022-10-22T05:06:24;14.10;99.90
7688;DHT22;30781;48.154;11.554;2022-10-22T05:08:53;14.00;99.90
7688;DHT22;30781;48.154;11.554;2022-10-22T05:11:22;14.10;99.90
7688;DHT22;30781;48.154;11.554;2022-10-22T05:13:50;14.00;99.90
7688;DHT22;30781;48.154;11.554;2022-10-22T05:16:18;14.00;99.90
7688;DHT22;30781;48.154;11.554;2022-10-22T05:18:54;14.00;99.90
7688;DHT22;30781;48.154;11.554;2022-10-22T05:21:21;14.00;99.90
7688;DHT22;30781;48.154;11.554;2022-10-22T05:23:49;14.00;99.90
7688;DHT22;30781;48.154;11.554;2022-10-22T05:26:19;14.00;99.90
7688;DHT22;30781;48.154;11.554;2022-10-22T05:28:52;14.00;99.90
7688;DHT22;30781;48.154;11.554;2022-10-22T05:31:20;13.90;99.90
7688;DHT22;30781;48.154;11.554;2022-10-22T05:33:47;13.90;99.90
7688;DHT22;30781;48.154;11.554;2022-10-22T05:36:22;14.00;99.90
7688;DHT22;30781;48.154;11.554;2022-10-22T05:38:53;13.90;99.90
7688;DHT22;30781;48.154;11.554;2022-10-22T05:41:22;13.90;99.90
7688;DHT22;30781;48.154;11.554;2022-10-22T05:43:49;13.90;99.90
7688;DHT22;30781;48.154;11.554;2022-10-22T05:46:18;14.00;99.90
7688;DHT22;30781;48.154;11.554;2022-10-22T05:48:48;14.00;99.90
7688;DHT22;30781;48.154;11.554;2022-10-22T05:51:20;14.00;99.90
7688;DHT22;30781;48.154;11.554;2022-10-22T05:53:51;14.00;99.90
7688;DHT22;30781;48.154;11.554;2022-10-22T05:56:21;14.00;99.90
7688;DHT22;30781;48.154;11.554;2022-10-22T05:58:48;14.10;99.90
7688;DHT22;30781;48.154;11.554;2022-10-22T06:01:21;14.10;99.90
7688;DHT22;30781;48.154;11.554;2022-10-22T06:03:53;14.10;99.90
7688;DHT22;30781;48.154;11.554;2022-10-22T06:06:26;14.10;99.90
7688;DHT22;30781;48.154;11.554;2022-10-22T06:08:59;14.10;99.90
7688;DHT22;30781;48.154;11.554;2022-10-22T06:11:27;14.10;99.90
7688;DHT22;30781;48.154;11.554;2022-10-22T06:13:54;14.10;99.90
7688;DHT22;30781;48.154;11.554;2022-10-22T06:16:23;14.10;99.90
7688;DHT22;30781;48.154;11.554;2022-10-22T06:18:50;14.10;99.90
7688;DHT22;30781;48.154;11.554;2022-10-22T06:21:22;14.10;99.90
7688;DHT22;30781;48.154;11.554;2022-10-22T06:23:51;14.10;99.90
7688;DHT22;30781;48.154;11.554;2022-10-22T06:26:18;14.10;99.90
7688;DHT22;30781;48.154;11.554;2022-10-22T06:28:45;14.20;99.90
7688;DHT22;30781;48.154;11.554;2022-10-22T06:31:17;14.20;99.90
7688;DHT22;30781;48.154;11.554;2022-10-22T06:33:45;14.20;99.90
7688;DHT22;30781;48.154;11.554;2022-10-22T06:36:16;14.20;99.90
7688;DHT22;30781;48.154;11.554;2022-10-22T06:38:46;14.20;99.90
7688;DHT22;30781;48.154;11.554;2022-10-22T06:41:18;14.20;99.90
7688;DHT22;30781;48.154;11.554;2022-10-22T06:43:47;14.20;99.90
7688;DHT22;30781;48.154;11.554;2022-10-22T06:46:16;14.30;99.90
7688;DHT22;30781;48.154;11.554;2022-10-22T06:48:48;14.30;99.90
7688;DHT22;30781;48.154;11.554;2022-10-22T06:51:18;14.30;99.90
7688;DHT22;30781;48.154;11.554;2022-10-22T06:53:46;14.40;99.90
7688;DHT22;30781;48.154;11.554;2022-10-22T06:56:17;14.50;99.90
7688;DHT22;30781;48.154;11.554;2022-10-22T06:58:46;14.50;99.90
7688;DHT22;30781;48.154;11.554;2022-10-22T07:01:16;14.50;99.90
7688;DHT22;30781;48.154;11.554;2022-10-22T07:03:48;14.50;99.90
7688;DHT22;30781;48.154;11.554;2022-10-22T07:06:18;14.60;99.90
7688;DHT22;30781;48.154;11.554;2022-10-22T07:08:45;14.60;99.90
7688;DHT22;30781;48.154;11.554;2022-10-22T07:11:17;14.60;99.90
7688;DHT22;30781;48.154;11.554;2022-10-22T07:13:45;14.70;99.90
7688;DHT22;30781;48.154;11.554;2022-10-22T07:16:14;14.70;99.90
7688;DHT22;30781;48.154;11.554;2022-10-22T07:18:41;14.70;99.90
7688;DHT22;30781;48.154;11.554;2022-10-22T07:21:09;14.70;99.90
7688;DHT22;30781;48.154;11.554;2022-10-22T07:23:39;14.80;99.90
7688;DHT22;30781;48.154;11.554;2022-10-22T07:26:07;14.80;99.90
7688;DHT22;30781;48.154;11.554;2022-10-22T07:28:37;14.80;99.90
7688;DHT22;30781;48.154;11.554;2022-10-22T07:31:10;14.80;99.90
7688;DHT22;30781;48.154;11.554;2022-10-22T07:33:38;14.80;99.90
7688;DHT22;30781;48.154;11.554;2022-10-22T07:36:10;14.90;99.90
7688;DHT22;30781;48.154;11.554;2022-10-22T07:38:42;15.00;99.90
7688;DHT22;30781;48.154;11.554;2022-10-22T07:41:09;15.00;99.90
7688;DHT22;30781;48.154;11.554;2022-10-22T07:43:38;15.10;99.90
7688;DHT22;30781;48.154;11.554;2022-10-22T07:46:11;15.20;99.90
7688;DHT22;30781;48.154;11.554;2022-10-22T07:48:38;15.20;99.90
7688;DHT22;30781;48.154;11.554;2022-10-22T07:51:05;15.30;99.90
7688;DHT22;30781;48.154;11.554;2022-10-22T07:53:33;15.40;99.90
7688;DHT22;30781;48.154;11.554;2022-10-22T07:55:59;15.50;99.90
7688;DHT22;30781;48.154;11.554;2022-10-22T07:58:26;15.60;99.90
7688;DHT22;30781;48.154;11.554;2022-10-22T08:00:57;15.70;99.90
7688;DHT22;30781;48.154;11.554;2022-10-22T08:03:26;15.80;99.90
7688;DHT22;30781;48.154;11.554;2022-10-22T08:05:53;15.90;99.90
7688;DHT22;30781;48.154;11.554;2022-10-22T08:08:21;16.00;99.90
7688;DHT22;30781;48.154;11.554;2022-10-22T08:10:54;16.00;99.90
7688;DHT22;30781;48.154;11.554;2022-10-22T08:13:27;16.10;99.90
7688;DHT22;30781;48.154;11.554;2022-10-22T08:15:59;16.10;99.90
7688;DHT22;30781;48.154;11.554;2022-10-22T08:18:26;16.20;99.90
7688;DHT22;30781;48.154;11.554;2022-10-22T08:20:56;16.20;99.90
7688;DHT22;30781;48.154;11.554;2022-10-22T08:23:24;16.20;99.90
7688;DHT22;30781;48.154;11.554;2022-10-22T08:25:51;16.20;99.90
7688;DHT22;30781;48.154;11.554;2022-10-22T08:28:19;16.30;99.90
7688;DHT22;30781;48.154;11.554;2022-10-22T08:30:45;16.30;99.90
7688;DHT22;30781;48.154;11.554;2022-10-22T08:33:14;16.30;99.90
7688;DHT22;30781;48.154;11.554;2022-10-22T08:35:41;16.30;99.90
7688;DHT22;30781;48.154;11.554;2022-10-22T08:38:16;16.40;99.90
7688;DHT22;30781;48.154;11.554;2022-10-22T08:40:46;16.40;99.90
7688;DHT22;30781;48.154;11.554;2022-10-22T08:46:51;16.50;99.90
7688;DHT22;30781;48.154;11.554;2022-10-22T08:49:25;16.50;99.90
7688;DHT22;30781;48.154;11.554;2022-10-22T08:51:56;16.50;99.90
7688;DHT22;30781;48.154;11.554;2022-10-22T08:54:36;16.50;99.90
7688;DHT22;30781;48.154;11.554;2022-10-22T09:00:05;16.60;99.90
7688;DHT22;30781;48.154;11.554;2022-10-22T09:02:42;16.70;99.90
7688;DHT22;30781;48.154;11.554;2022-10-22T09:05:32;16.80;99.90
7688;DHT22;30781;48.154;11.554;2022-10-22T09:08:01;16.90;99.90
7688;DHT22;30781;48.154;11.554;2022-10-22T09:10:31;17.00;99.90
7688;DHT22;30781;48.154;11.554;2022-10-22T09:13:01;17.00;99.90
7688;DHT22;30781;48.154;11.554;2022-10-22T09:15:28;17.10;99.90
7688;DHT22;30781;48.154;11.554;2022-10-22T09:18:05;17.20;99.90
7688;DHT22;30781;48.154;11.554;2022-10-22T09:20:43;17.30;99.90
7688;DHT22;30781;48.154;11.554;2022-10-22T09:23:23;17.40;99.80
7688;DHT22;30781;48.154;11.554;2022-10-22T09:25:52;17.40;99.60
7688;DHT22;30781;48.154;11.554;2022-10-22T09:28:20;17.40;99.40
7688;DHT22;30781;48.154;11.554;2022-10-22T09:30:47;17.50;99.40
7688;DHT22;30781;48.154;11.554;2022-10-22T09:33:16;17.50;99.30
7688;DHT22;30781;48.154;11.554;2022-10-22T09:35:46;17.70;99.10
7688;DHT22;30781;48.154;11.554;2022-10-22T09:38:17;17.80;98.90
7688;DHT22;30781;48.154;11.554;2022-10-22T09:40:47;17.80;98.60
7688;DHT22;30781;48.154;11.554;2022-10-22T09:43:15;17.90;98.50
7688;DHT22;30781;48.154;11.554;2022-10-22T09:45:43;18.00;98.40
7688;DHT22;30781;48.154;11.554;2022-10-22T09:48:19;18.10;98.40
7688;DHT22;30781;48.154;11.554;2022-10-22T09:50:49;18.20;98.10
7688;DHT22;30781;48.154;11.554;2022-10-22T09:53:24;18.30;98.00
7688;DHT22;30781;48.154;11.554;2022-10-22T09:55:55;18.50;98.00
7688;DHT22;30781;48.154;11.554;2022-10-22T09:58:22;18.60;97.50
7688;DHT22;30781;48.154;11.554;2022-10-22T10:00:55;18.60;97.50
7688;DHT22;30781;48.154;11.554;2022-10-22T10:03:23;18.60;97.30
7688;DHT22;30781;48.154;11.554;2022-10-22T10:05:53;18.60;97.30
7688;DHT22;30781;48.154;11.554;2022-10-22T10:08:21;18.60;97.20
7688;DHT22;30781;48.154;11.554;2022-10-22T10:10:51;18.60;97.30
7688;DHT22;30781;48.154;11.554;2022-10-22T10:13:48;18.50;97.20
7688;DHT22;30781;48.154;11.554;2022-10-22T10:16:29;18.50;97.60
7688;DHT22;30781;48.154;11.554;2022-10-22T10:19:23;18.60;97.80
7688;DHT22;30781;48.154;11.554;2022-10-22T10:22:02;18.70;97.70
7688;DHT22;30781;48.154;11.554;2022-10-22T10:24:36;18.80;97.60
7688;DHT22;30781;48.154;11.554;2022-10-22T10:27:11;18.90;97.20
7688;DHT22;30781;48.154;11.554;2022-10-22T10:29:48;19.00;96.90
7688;DHT22;30781;48.154;11.554;2022-10-22T10:32:30;19.00;96.70
7688;DHT22;30781;48.154;11.554;2022-10-22T10:35:15;19.10;96.50
7688;DHT22;30781;48.154;11.554;2022-10-22T10:37:47;19.10;96.40
7688;DHT22;30781;48.154;11.554;2022-10-22T10:40:27;19.20;96.50
7688;DHT22;30781;48.154;11.554;2022-10-22T10:43:00;19.20;96.30
7688;DHT22;30781;48.154;11.554;2022-10-22T10:45:36;19.30;96.20
7688;DHT22;30781;48.154;11.554;2022-10-22T10:51:06;19.40;95.80
7688;DHT22;30781;48.154;11.554;2022-10-22T10:53:46;19.40;95.70
7688;DHT22;30781;48.154;11.554;2022-10-22T10:56:28;19.40;95.50
7688;DHT22;30781;48.154;11.554;2022-10-22T10:59:04;19.40;95.00
7688;DHT22;30781;48.154;11.554;2022-10-22T11:01:40;19.40;94.80
7688;DHT22;30781;48.154;11.554;2022-10-22T11:04:21;19.40;95.10
7688;DHT22;30781;48.154;11.554;2022-10-22T11:06:52;19.30;94.60
7688;DHT22;30781;48.154;11.554;2022-10-22T11:09:26;19.30;94.50
7688;DHT22;30781;48.154;11.554;2022-10-22T11:11:57;19.30;94.20
7688;DHT22;30781;48.154;11.554;2022-10-22T11:14:29;19.20;94.50
7688;DHT22;30781;48.154;11.554;2022-10-22T11:17:09;19.10;94.30
7688;DHT22;30781;48.154;11.554;2022-10-22T11:19:41;19.00;94.50
7688;DHT22;30781;48.154;11.554;2022-10-22T11:22:14;18.90;94.70
7688;DHT22;30781;48.154;11.554;2022-10-22T11:24:50;18.90;94.90
7688;DHT22;30781;48.154;11.554;2022-10-22T11:27:26;18.80;95.20
7688;DHT22;30781;48.154;11.554;2022-10-22T11:30:02;18.70;95.30
7688;DHT22;30781;48.154;11.554;2022-10-22T11:32:31;18.80;95.40
7688;DHT22;30781;48.154;11.554;2022-10-22T11:35:02;18.80;95.70
7688;DHT22;30781;48.154;11.554;2022-10-22T11:37:35;18.80;95.50
7688;DHT22;30781;48.154;11.554;2022-10-22T11:40:06;18.80;95.40
7688;DHT22;30781;48.154;11.554;2022-10-22T11:42:43;18.80;95.50
7688;DHT22;30781;48.154;11.554;2022-10-22T11:45:27;18.90;95.20
7688;DHT22;30781;48.154;11.554;2022-10-22T11:47:58;19.00;95.30
7688;DHT22;30781;48.154;11.554;2022-10-22T11:50:26;19.00;95.30
7688;DHT22;30781;48.154;11.554;2022-10-22T11:53:17;19.10;94.70
7688;DHT22;30781;48.154;11.554;2022-10-22T11:55:51;19.20;94.40
7688;DHT22;30781;48.154;11.554;2022-10-22T11:58:28;19.20;94.50
7688;DHT22;30781;48.154;11.554;2022-10-22T12:01:16;19.30;94.20
7688;DHT22;30781;48.154;11.554;2022-10-22T12:03:48;19.40;94.30
7688;DHT22;30781;48.154;11.554;2022-10-22T12:06:21;19.60;94.00
7688;DHT22;30781;48.154;11.554;2022-10-22T12:08:57;19.70;93.60
7688;DHT22;30781;48.154;11.554;2022-10-22T12:11:28;19.90;93.50
7688;DHT22;30781;48.154;11.554;2022-10-22T12:14:13;19.90;92.80
7688;DHT22;30781;48.154;11.554;2022-10-22T12:16:44;20.00;92.70
7688;DHT22;30781;48.154;11.554;2022-10-22T12:19:14;20.10;92.70
7688;DHT22;30781;48.154;11.554;2022-10-22T12:21:47;20.30;92.70
7688;DHT22;30781;48.154;11.554;2022-10-22T12:24:20;20.40;92.20
7688;DHT22;30781;48.154;11.554;2022-10-22T12:26:49;20.40;91.80
7688;DHT22;30781;48.154;11.554;2022-10-22T12:29:21;20.30;91.70
7688;DHT22;30781;48.154;11.554;2022-10-22T12:31:50;20.20;91.60
7688;DHT22;30781;48.154;11.554;2022-10-22T12:34:24;20.20;91.90
7688;DHT22;30781;48.154;11.554;2022-10-22T12:36:52;20.10;92.10
7688;DHT22;30781;48.154;11.554;2022-10-22T12:39:20;20.10;92.10
7688;DHT22;30781;48.154;11.554;2022-10-22T12:41:51;20.10;91.80
7688;DHT22;30781;48.154;11.554;2022-10-22T12:44:18;20.10;91.50
7688;DHT22;30781;48.154;11.554;2022-10-22T12:46:47;20.10;91.80
7688;DHT22;30781;48.154;11.554;2022-10-22T12:49:18;20.20;91.50
7688;DHT22;30781;48.154;11.554;2022-10-22T12:51:46;20.30;91.00
7688;DHT22;30781;48.154;11.554;2022-10-22T12:54:21;20.30;91.20
7688;DHT22;30781;48.154;11.554;2022-10-22T12:56:51;20.30;91.00
7688;DHT22;30781;48.154;11.554;2022-10-22T12:59:22;20.30;91.10
7688;DHT22;30781;48.154;11.554;2022-10-22T13:01:51;20.30;90.30
7688;DHT22;30781;48.154;11.554;2022-10-22T13:04:21;20.30;91.20
7688;DHT22;30781;48.154;11.554;2022-10-22T13:06:50;20.30;91.30
7688;DHT22;30781;48.154;11.554;2022-10-22T13:09:23;20.30;91.30
7688;DHT22;30781;48.154;11.554;2022-10-22T13:11:56;20.30;91.30
7688;DHT22;30781;48.154;11.554;2022-10-22T13:14:33;20.30;91.20
7688;DHT22;30781;48.154;11.554;2022-10-22T13:17:08;20.20;91.30
7688;DHT22;30781;48.154;11.554;2022-10-22T13:19:38;20.10;91.30
7688;DHT22;30781;48.154;11.554;2022-10-22T13:22:28;20.10;91.30
7688;DHT22;30781;48.154;11.554;2022-10-22T13:24:55;20.10;91.50
7688;DHT22;30781;48.154;11.554;2022-10-22T13:27:26;20.00;91.20
7688;DHT22;30781;48.154;11.554;2022-10-22T13:30:08;19.90;91.30
7688;DHT22;30781;48.154;11.554;2022-10-22T13:32:37;19.90;91.60
7688;DHT22;30781;48.154;11.554;2022-10-22T13:35:08;19.90;91.60
7688;DHT22;30781;48.154;11.554;2022-10-22T13:37:40;19.90;91.50
7688;DHT22;30781;48.154;11.554;2022-10-22T13:40:11;19.90;91.00
7688;DHT22;30781;48.154;11.554;2022-10-22T13:42:39;19.90;90.80
7688;DHT22;30781;48.154;11.554;2022-10-22T13:45:07;19.90;90.80
7688;DHT22;30781;48.154;11.554;2022-10-22T13:47:35;20.00;90.20
7688;DHT22;30781;48.154;11.554;2022-10-22T13:50:06;20.00;90.00
7688;DHT22;30781;48.154;11.554;2022-10-22T13:52:39;19.90;90.00
7688;DHT22;30781;48.154;11.554;2022-10-22T13:55:16;20.00;90.10
7688;DHT22;30781;48.154;11.554;2022-10-22T13:57:45;20.00;90.10
7688;DHT22;30781;48.154;11.554;2022-10-22T14:00:18;20.00;90.10
7688;DHT22;30781;48.154;11.554;2022-10-22T14:02:48;20.00;90.10
7688;DHT22;30781;48.154;11.554;2022-10-22T14:05:16;20.00;89.70
7688;DHT22;30781;48.154;11.554;2022-10-22T14:07:44;20.00;89.50
7688;DHT22;30781;48.154;11.554;2022-10-22T14:10:15;20.00;89.00
7688;DHT22;30781;48.154;11.554;2022-10-22T14:12:42;20.00;89.70
7688;DHT22;30781;48.154;11.554;2022-10-22T14:15:13;20.00;89.90
7688;DHT22;30781;48.154;11.554;2022-10-22T14:17:42;19.90;90.00
7688;DHT22;30781;48.154;11.554;2022-10-22T14:20:14;19.90;89.50
7688;DHT22;30781;48.154;11.554;2022-10-22T14:22:43;19.80;89.90
7688;DHT22;30781;48.154;11.554;2022-10-22T14:25:13;19.70;90.10
7688;DHT22;30781;48.154;11.554;2022-10-22T14:27:41;19.60;90.20
7688;DHT22;30781;48.154;11.554;2022-10-22T14:30:08;19.50;90.50
7688;DHT22;30781;48.154;11.554;2022-10-22T14:32:40;19.50;90.70
7688;DHT22;30781;48.154;11.554;2022-10-22T14:35:11;19.40;90.80
7688;DHT22;30781;48.154;11.554;2022-10-22T14:37:39;19.40;90.90
7688;DHT22;30781;48.154;11.554;2022-10-22T14:40:07;19.40;90.90
7688;DHT22;30781;48.154;11.554;2022-10-22T14:42:38;19.50;90.70
7688;DHT22;30781;48.154;11.554;2022-10-22T14:45:14;19.50;90.70
7688;DHT22;30781;48.154;11.554;2022-10-22T14:47:46;19.50;90.70
7688;DHT22;30781;48.154;11.554;2022-10-22T14:50:14;19.50;90.50
7688;DHT22;30781;48.154;11.554;2022-10-22T14:52:41;19.60;90.70
7688;DHT22;30781;48.154;11.554;2022-10-22T14:55:09;19.60;90.70
7688;DHT22;30781;48.154;11.554;2022-10-22T14:57:36;19.60;90.40
7688;DHT22;30781;48.154;11.554;2022-10-22T15:00:06;19.60;90.40
7688;DHT22;30781;48.154;11.554;2022-10-22T15:02:34;19.60;90.50
7688;DHT22;30781;48.154;11.554;2022-10-22T15:05:03;19.50;90.40
7688;DHT22;30781;48.154;11.554;2022-10-22T15:07:30;19.50;90.60
7688;DHT22;30781;48.154;11.554;2022-10-22T15:09:57;19.40;90.70
7688;DHT22;30781;48.154;11.554;2022-10-22T15:12:24;19.30;90.90
7688;DHT22;30781;48.154;11.554;2022-10-22T15:14:55;19.30;90.90
7688;DHT22;30781;48.154;11.554;2022-10-22T15:17:22;19.20;90.90
7688;DHT22;30781;48.154;11.554;2022-10-22T15:19:49;19.20;91.00
7688;DHT22;30781;48.154;11.554;2022-10-22T15:22:20;19.10;91.00
7688;DHT22;30781;48.154;11.554;2022-10-22T15:24:47;19.00;91.00
7688;DHT22;30781;48.154;11.554;2022-10-22T15:27:14;19.00;91.00
7688;DHT22;30781;48.154;11.554;2022-10-22T15:29:45;18.90;91.00
7688;DHT22;30781;48.154;11.554;2022-10-22T15:32:12;18.80;91.30
7688;DHT22;30781;48.154;11.554;2022-10-22T15:34:39;18.80;91.30
7688;DHT22;30781;48.154;11.554;2022-10-22T15:37:08;18.70;91.30
7688;DHT22;30781;48.154;11.554;2022-10-22T15:39:39;18.70;91.40
7688;DHT22;30781;48.154;11.554;2022-10-22T15:42:07;18.60;91.90
7688;DHT22;30781;48.154;11.554;2022-10-22T15:44:37;18.50;91.50
7688;DHT22;30781;48.154;11.554;2022-10-22T15:47:08;18.50;91.70
7688;DHT22;30781;48.154;11.554;2022-10-22T15:49:37;18.40;91.80
7688;DHT22;30781;48.154;11.554;2022-10-22T15:52:05;18.30;91.90
7688;DHT22;30781;48.154;11.554;2022-10-22T15:54:33;18.30;92.10
7688;DHT22;30781;48.154;11.554;2022-10-22T15:57:03;18.20;92.20
7688;DHT22;30781;48.154;11.554;2022-10-22T15:59:33;18.10;92.20
7688;DHT22;30781;48.154;11.554;2022-10-22T16:02:00;18.00;92.30
7688;DHT22;30781;48.154;11.554;2022-10-22T16:04:27;17.90;92.40